• Join FlightAware (Why Join?)
  • Login
  • US Flag 
04:39PM EST


 

Airport Tracker/Info


-or-


 

Live Flight TrackerFlight Track Log ✈ GJS3710 ✈ 19-May-2013 ✈ KSTL - KORD

Flight Track Log - Related Links

Times and Time Zones

All times are in EDT time to prevent confusion due to time zone crossing. See the GJS3710 flight status page for this flight to view local times or setup timezone preferences in your user account.

Time Position Orientation Groundspeed Altitude Reporting Facility
EDT Latitude Longitude Course Direction KTS MPH feet Rate Location/Type
07:37PM 38.7333 -90.3000 356° North 161 185 2,100  Level Gateway (St. Louis) TRACON
07:38PM 38.7500 -90.2333 72° East 245 282 4,100 1,860 Climbing Gateway (St. Louis) TRACON
07:39PM 38.8203 -90.2206 North 273 314 5,900 2,040 Climbing Kansas City Center
07:40PM 38.9761 -90.2000 North  Level FlightAware Approximate
07:40PM 38.9050 -90.2244 358° North 299 344 8,400  Level Kansas City Center
07:41PM 39.0702 -90.2053 356° North  Level FlightAware Approximate
07:41PM 38.9936 -90.2233 North 314 361 11,300  Level Kansas City Center
07:42PM 39.1587 -90.2142 356° North  Level FlightAware Approximate
07:42PM 39.1003 -90.2231 360° North 321 369 13,600  Level Kansas City Center
07:43PM 39.2003 -90.2211 North 351 404 15,300 1,620 Climbing Kansas City Center
07:44PM 39.3083 -90.2197 North 378 435 17,000 1,800 Climbing Kansas City Center
07:45PM 39.4206 -90.2119 North 400 460 19,100 1,800 Climbing Kansas City Center
07:46PM 39.5333 -90.1844 11° North 412 474 20,700 900 Climbing Kansas City Center
07:47PM 39.6558 -90.1561 10° North 443 510 21,000 120 Climbing Kansas City Center
07:48PM 39.7928 -90.1261 10° North 467 537 21,000  Level Kansas City Center
07:49PM 39.8964 -90.1011 10° North 475 547 21,000  Level Chicago Center
07:50PM 40.0256 -90.0711 10° North 473 544 21,000  Level Chicago Center
07:51PM 40.1514 -90.0258 15° North 469 540 21,000  Level Chicago Center
07:52PM 40.2994 -89.9628 18° North 467 537 21,000  Level Chicago Center
07:53PM 40.4228 -89.9092 18° North 467 537 21,000  Level Chicago Center
07:54PM 40.5364 -89.8603 18° North 466 536 21,000  Level Chicago Center
07:55PM 40.6586 -89.8044 19° North 465 535 21,000  Level Chicago Center
07:56PM 40.8058 -89.7378 19° North 469 540 21,000  Level Chicago Center
07:57PM 40.8906 -89.6100 49° Northeast 466 536 21,000  Level Chicago Center
07:58PM 40.9789 -89.4772 49° Northeast 473 544 21,000  Level Chicago Center
07:59PM 41.0619 -89.3450 50° Northeast 466 536 21,000 -300 Level Chicago Center
08:00PM 41.1447 -89.2136 50° Northeast 465 535 20,400 -1,200 Descending Chicago Center
08:01PM 41.2239 -89.0856 51° Northeast 464 534 18,600 -1,860 Descending Chicago Center
08:02PM 41.3014 -88.9586 51° Northeast 445 512 16,600 -1,860 Descending Chicago Center
08:03PM 41.3903 -88.8153 50° Northeast 419 482 14,800 -1,680 Descending Chicago Center
08:04PM 41.4642 -88.6969 50° Northeast 414 476 13,200 -1,620 Descending Chicago Center
08:05PM 41.5372 -88.5775 51° Northeast 415 478 11,500 -1,080 Descending Chicago Center
08:06PM 41.6006 -88.4761 50° Northeast 347 399 11,000 -1,080 Descending Chicago Center
08:07PM 41.6569 -88.3828 51° Northeast 321 369 9,400 -1,560 Descending Chicago Center
08:08PM 41.7200 -88.3178 38° Northeast 307 353 7,900 -1,200 Descending Chicago Center
08:09PM 41.7972 -88.3250 356° North 276 318 7,000 -480 Descending Chicago Center
08:10PM 41.8681 -88.3300 357° North 258 297 7,000 -1,080 Level Chicago Center
08:11PM 41.9378 -88.3075 13° North 244 281 4,800 -1,500 Descending Chicago Center
08:12PM 41.9667 -88.2419 59° Northeast 216 249 4,000 -420 Descending Chicago Center
08:14PM 41.9678 -88.1758 89° East 198 228 4,000 -420 Level Chicago Center
08:15PM 41.9675 -88.1125 90° East 179 206 3,200 -840 Descending Chicago Center
08:15PM 41.9667 -88.0667 91° East 162 186 2,700 -900 Descending Chicago TRACON